createdAt,value
2023-02-18T00:01:25.241Z,64.43
2023-02-18T00:03:52.323Z,64.51
2023-02-18T00:06:26.381Z,63.86
2023-02-18T00:08:53.854Z,64.04
2023-02-18T00:11:21.757Z,63.96
2023-02-18T00:13:59.419Z,64.48
2023-02-18T00:16:27.574Z,64.48
2023-02-18T00:18:58.922Z,64.77
2023-02-18T00:21:26.397Z,64.49
2023-02-18T00:23:52.954Z,64.43
2023-02-18T00:26:20.124Z,64.80
2023-02-18T00:28:51.736Z,64.99
2023-02-18T00:31:24.621Z,64.35
2023-02-18T00:33:52.315Z,64.56
2023-02-18T00:36:21.927Z,64.54
2023-02-18T00:38:58.252Z,64.72
2023-02-18T00:41:27.643Z,64.75
2023-02-18T00:43:54.525Z,64.91
2023-02-18T00:46:23.022Z,64.74
2023-02-18T00:48:49.834Z,65.04
2023-02-18T00:51:19.133Z,65.23
2023-02-18T00:53:48.362Z,65.17
2023-02-18T00:56:15.348Z,65.15
2023-02-18T00:58:42.559Z,65.68
2023-02-18T01:01:10.790Z,65.70
2023-02-18T01:03:39.051Z,65.37
2023-02-18T01:06:07.790Z,65.64
2023-02-18T01:08:35.976Z,65.62
2023-02-18T01:11:03.206Z,65.59
2023-02-18T01:13:30.286Z,65.89
2023-02-18T01:15:57.362Z,66.22
2023-02-18T01:18:25.988Z,66.17
2023-02-18T01:20:53.128Z,65.50
2023-02-18T01:23:20.243Z,65.59
2023-02-18T01:25:48.738Z,65.59
2023-02-18T01:28:15.504Z,65.73
2023-02-18T01:30:43.894Z,65.28
2023-02-18T01:33:11.037Z,65.39
2023-02-18T01:35:40.993Z,65.23
2023-02-18T01:38:08.546Z,65.11
2023-02-18T01:40:36.147Z,65.74
2023-02-18T01:43:03.384Z,65.17
2023-02-18T01:45:39.024Z,65.12
2023-02-18T01:48:11.310Z,65.11
2023-02-18T01:50:44.406Z,64.83
2023-02-18T01:53:15.056Z,64.85
2023-02-18T01:55:41.822Z,64.38
2023-02-18T01:58:09.129Z,63.66
2023-02-18T02:00:37.022Z,63.64
2023-02-18T02:03:06.967Z,63.16
2023-02-18T02:05:34.541Z,63.49
2023-02-18T02:08:02.943Z,63.16
2023-02-18T02:10:53.425Z,63.66
2023-02-18T02:13:53.056Z,63.24
2023-02-18T02:16:51.988Z,62.45
2023-02-18T02:19:36.017Z,62.75
2023-02-18T02:22:24.137Z,62.87
2023-02-18T02:25:37.100Z,62.57
2023-02-18T02:28:31.636Z,62.54
2023-02-18T02:31:01.258Z,62.31
2023-02-18T02:33:43.077Z,62.86
2023-02-18T02:36:29.696Z,63.01
2023-02-18T02:39:43.016Z,62.85
2023-02-18T02:42:21.525Z,63.24
2023-02-18T02:44:56.776Z,63.01
2023-02-18T02:47:36.676Z,63.26
2023-02-18T02:50:52.153Z,63.29
2023-02-18T02:53:25.017Z,63.24
2023-02-18T02:55:51.953Z,63.14
2023-02-18T02:58:20.509Z,63.60
2023-02-18T03:01:10.867Z,63.53
2023-02-18T03:04:05.674Z,63.79
2023-02-18T03:06:39.458Z,63.77
2023-02-18T03:09:42.526Z,64.32
2023-02-18T03:12:27.921Z,64.64
2023-02-18T03:15:03.621Z,64.24
2023-02-18T03:17:46.311Z,64.30
2023-02-18T03:20:31.465Z,64.33
2023-02-18T03:23:01.471Z,64.22
2023-02-18T03:25:29.073Z,64.63
2023-02-18T03:28:00.127Z,64.73
2023-02-18T03:30:31.090Z,64.37
2023-02-18T03:33:05.898Z,64.33
2023-02-18T03:35:33.019Z,64.36
2023-02-18T03:38:09.662Z,64.27
2023-02-18T03:40:36.855Z,64.13
2023-02-18T03:43:03.699Z,64.48
2023-02-18T03:45:33.912Z,64.78
2023-02-18T03:48:00.637Z,64.81
2023-02-18T03:50:27.323Z,64.71
2023-02-18T03:52:53.947Z,64.60
2023-02-18T03:55:20.711Z,64.66
2023-02-18T03:57:47.421Z,64.64
2023-02-18T04:00:14.467Z,64.78
2023-02-18T04:02:42.140Z,65.04
2023-02-18T04:05:08.870Z,64.77
2023-02-18T04:07:35.801Z,65.22
2023-02-18T04:10:02.444Z,65.18
2023-02-18T04:12:29.050Z,65.06
2023-02-18T04:14:55.615Z,64.83
2023-02-18T04:17:22.343Z,65.26
2023-02-18T04:19:48.952Z,65.13
2023-02-18T04:22:15.570Z,64.96
2023-02-18T04:24:42.253Z,65.08
2023-02-18T04:27:08.977Z,64.96
2023-02-18T04:29:36.035Z,65.26
2023-02-18T04:32:02.653Z,65.20
2023-02-18T04:34:29.225Z,65.05
2023-02-18T04:36:56.170Z,65.11
2023-02-18T04:39:23.572Z,65.03
2023-02-18T04:41:50.346Z,65.10
2023-02-18T04:44:16.956Z,65.35
2023-02-18T04:46:43.522Z,64.97
2023-02-18T04:49:10.104Z,65.22
2023-02-18T04:51:37.645Z,65.01
2023-02-18T04:54:05.088Z,64.82
2023-02-18T04:56:31.779Z,64.68
2023-02-18T04:58:58.519Z,64.62
2023-02-18T05:01:25.217Z,64.83
2023-02-18T05:03:51.838Z,64.62
2023-02-18T05:06:18.448Z,64.88
2023-02-18T05:08:45.142Z,65.05
2023-02-18T05:11:11.828Z,64.88
2023-02-18T05:13:38.394Z,65.37
2023-02-18T05:16:05.204Z,65.55
2023-02-18T05:18:31.871Z,65.63
2023-02-18T05:20:58.487Z,66.03
2023-02-18T05:23:25.973Z,65.94
2023-02-18T05:25:52.634Z,65.77
2023-02-18T05:28:19.254Z,65.88
2023-02-18T05:30:46.115Z,65.87
2023-02-18T05:33:13.307Z,65.39
2023-02-18T05:35:39.895Z,65.28
2023-02-18T05:38:06.515Z,65.56
2023-02-18T05:40:33.179Z,65.42
2023-02-18T05:42:59.909Z,65.25
2023-02-18T05:45:26.668Z,65.47
2023-02-18T05:47:53.343Z,65.37
2023-02-18T05:50:20.215Z,65.46
2023-02-18T05:52:46.824Z,64.82
2023-02-18T05:55:13.550Z,64.83
2023-02-18T05:57:40.466Z,64.91
2023-02-18T06:00:09.827Z,64.69
2023-02-18T06:02:37.380Z,64.47
2023-02-18T06:05:05.561Z,65.04
2023-02-18T06:07:32.273Z,64.99
2023-02-18T06:09:59.165Z,66.06
2023-02-18T06:12:26.078Z,67.84
2023-02-18T06:14:52.802Z,69.23
2023-02-18T06:17:19.550Z,70.38
2023-02-18T06:19:46.591Z,70.98
2023-02-18T06:22:13.246Z,71.69
2023-02-18T06:24:39.910Z,72.06
2023-02-18T06:27:07.230Z,70.35
2023-02-18T06:29:35.867Z,69.95
2023-02-18T06:32:02.582Z,69.68
2023-02-18T06:34:29.350Z,69.67
2023-02-18T06:36:56.186Z,68.61
2023-02-18T06:39:22.988Z,68.91
2023-02-18T06:41:49.539Z,68.63
2023-02-18T06:44:17.430Z,68.10
2023-02-18T06:46:44.637Z,68.28
2023-02-18T06:49:11.497Z,68.18
2023-02-18T06:51:38.219Z,67.61
2023-02-18T06:54:06.012Z,67.73
2023-02-18T06:56:32.978Z,67.52
2023-02-18T06:58:59.682Z,67.69
2023-02-18T07:01:26.369Z,68.84
2023-02-18T07:03:53.031Z,70.48
2023-02-18T07:06:19.841Z,71.27
2023-02-18T07:08:46.517Z,71.79
2023-02-18T07:11:13.345Z,72.73
2023-02-18T07:13:39.992Z,73.15
2023-02-18T07:16:07.296Z,73.91
2023-02-18T07:18:34.124Z,74.13
2023-02-18T07:21:00.796Z,74.52
2023-02-18T07:23:30.472Z,74.91
2023-02-18T07:26:10.258Z,75.22
2023-02-18T07:28:37.119Z,75.28
2023-02-18T07:31:04.307Z,75.71
2023-02-18T07:33:31.584Z,75.85
2023-02-18T07:36:00.854Z,75.79
2023-02-18T07:38:28.014Z,75.73
2023-02-18T07:40:55.950Z,75.05
2023-02-18T07:43:22.620Z,73.36
2023-02-18T07:45:49.320Z,71.62
2023-02-18T07:48:16.951Z,69.73
2023-02-18T07:50:45.395Z,68.55
2023-02-18T07:53:14.119Z,68.02
2023-02-18T07:55:49.922Z,68.10
2023-02-18T07:58:20.348Z,67.70
2023-02-18T08:00:47.788Z,67.60
2023-02-18T08:03:15.340Z,67.15
2023-02-18T08:05:42.218Z,67.03
2023-02-18T08:08:13.625Z,67.17
2023-02-18T08:10:40.426Z,67.42
2023-02-18T08:13:07.004Z,67.31
2023-02-18T08:15:33.659Z,67.65
2023-02-18T08:18:00.648Z,67.36
2023-02-18T08:20:30.419Z,67.51
2023-02-18T08:22:57.430Z,67.20
2023-02-18T08:25:29.351Z,66.97
2023-02-18T08:27:57.019Z,66.43
2023-02-18T08:30:23.661Z,66.70
2023-02-18T08:32:50.624Z,66.23
2023-02-18T08:35:17.422Z,65.52
2023-02-18T08:37:52.481Z,65.71
2023-02-18T08:40:21.151Z,66.00
2023-02-18T08:42:47.707Z,65.86
2023-02-18T08:45:14.259Z,65.29
2023-02-18T08:48:18.028Z,65.69
2023-02-18T08:50:28.237Z,65.75
2023-02-18T08:52:55.402Z,65.25
2023-02-18T08:55:22.071Z,65.46
2023-02-18T08:57:49.102Z,65.17
2023-02-18T09:00:17.432Z,64.66
2023-02-18T09:02:44.625Z,64.93
2023-02-18T09:05:12.442Z,64.76
2023-02-18T09:07:39.285Z,64.90
2023-02-18T09:10:07.752Z,65.14
2023-02-18T09:12:35.202Z,65.07
2023-02-18T09:15:02.076Z,65.20
2023-02-18T09:17:29.194Z,65.21
2023-02-18T09:19:55.745Z,64.99
2023-02-18T09:22:22.444Z,65.22
2023-02-18T09:24:49.017Z,65.15
2023-02-18T09:27:15.674Z,65.05
2023-02-18T09:29:42.706Z,64.98
2023-02-18T09:32:11.117Z,65.25
2023-02-18T09:34:38.451Z,65.10
2023-02-18T09:37:05.488Z,65.57
2023-02-18T09:39:32.144Z,65.94
2023-02-18T09:42:02.745Z,66.04
2023-02-18T09:44:40.997Z,66.15
2023-02-18T09:47:10.493Z,65.76
2023-02-18T09:49:40.895Z,65.89
2023-02-18T09:52:12.316Z,65.97
2023-02-18T09:54:39.042Z,66.13
2023-02-18T09:57:15.708Z,66.63
2023-02-18T09:59:46.178Z,66.14
2023-02-18T10:02:17.531Z,65.70
2023-02-18T10:04:52.199Z,65.56
2023-02-18T10:07:28.600Z,65.80
2023-02-18T10:09:57.469Z,65.83
2023-02-18T10:12:26.705Z,65.22
2023-02-18T10:14:58.757Z,65.38
2023-02-18T10:17:27.364Z,65.06
2023-02-18T10:19:56.475Z,65.16
2023-02-18T10:22:25.745Z,63.94
2023-02-18T10:24:55.416Z,63.42
2023-02-18T10:27:28.683Z,63.45
2023-02-18T10:30:07.691Z,63.21
2023-02-18T10:32:38.123Z,61.71
2023-02-18T10:35:24.177Z,60.19
2023-02-18T10:38:20.338Z,59.78
2023-02-18T10:41:47.468Z,59.02
2023-02-18T10:44:37.015Z,58.94
2023-02-18T10:47:21.897Z,58.85
2023-02-18T10:49:58.053Z,58.55
2023-02-18T10:52:32.020Z,58.64
2023-02-18T10:55:09.496Z,58.60
2023-02-18T10:57:47.166Z,58.05
2023-02-18T11:00:38.890Z,58.19
2023-02-18T11:03:14.780Z,57.77
2023-02-18T11:05:45.726Z,58.49
2023-02-18T11:08:19.227Z,58.61
2023-02-18T11:10:48.363Z,58.98
2023-02-18T11:13:31.839Z,59.36
2023-02-18T11:16:04.920Z,58.94
2023-02-18T11:18:48.081Z,59.48
2023-02-18T11:21:21.580Z,59.20
2023-02-18T11:23:53.791Z,59.20
2023-02-18T11:26:30.636Z,59.04
2023-02-18T11:29:23.081Z,58.99
2023-02-18T11:31:52.905Z,59.27
2023-02-18T11:34:26.869Z,59.89
2023-02-18T11:36:54.453Z,58.57
2023-02-18T11:39:27.567Z,58.66
2023-02-18T11:42:19.754Z,58.54
2023-02-18T11:44:57.905Z,57.91
2023-02-18T11:47:36.151Z,58.75
2023-02-18T11:50:16.302Z,58.75
2023-02-18T11:52:48.154Z,58.16
2023-02-18T11:55:24.959Z,56.88
2023-02-18T11:57:59.652Z,55.40
2023-02-18T12:00:51.483Z,55.24
2023-02-18T12:03:46.933Z,55.32
2023-02-18T12:06:39.342Z,55.79
2023-02-18T12:09:19.483Z,55.69
2023-02-18T12:11:52.952Z,55.98
2023-02-18T12:14:22.102Z,55.50
2023-02-18T12:17:24.349Z,55.33
2023-02-18T12:19:59.563Z,55.38
2023-02-18T12:22:51.493Z,55.48
2023-02-18T12:25:43.523Z,55.71
2023-02-18T12:28:39.329Z,55.26
2023-02-18T12:31:29.941Z,54.87
2023-02-18T12:34:10.366Z,55.21
2023-02-18T12:37:06.148Z,55.27
2023-02-18T12:39:47.166Z,55.25
2023-02-18T12:42:44.684Z,55.26
2023-02-18T12:45:39.021Z,55.34
2023-02-18T12:48:37.145Z,55.32
2023-02-18T12:51:22.609Z,56.07
2023-02-18T12:54:18.220Z,54.52
2023-02-18T12:57:22.496Z,54.24
2023-02-18T13:00:20.005Z,53.69
2023-02-18T13:03:11.673Z,53.06
2023-02-18T13:05:53.137Z,52.41
2023-02-18T13:08:33.141Z,52.10
2023-02-18T13:11:27.368Z,51.36
2023-02-18T13:13:56.978Z,51.22
2023-02-18T13:16:26.355Z,51.59
2023-02-18T13:19:21.642Z,51.54
2023-02-18T13:21:51.823Z,50.90
2023-02-18T13:24:31.217Z,50.72
2023-02-18T13:27:06.159Z,51.32
2023-02-18T13:29:41.821Z,51.01
2023-02-18T13:32:31.834Z,50.77
2023-02-18T13:35:09.445Z,50.85
2023-02-18T13:38:00.417Z,50.19
2023-02-18T13:40:30.547Z,49.75
2023-02-18T13:43:35.696Z,49.84
2023-02-18T13:46:09.666Z,48.54
2023-02-18T13:49:02.861Z,48.32
2023-02-18T13:51:38.171Z,49.07
2023-02-18T13:54:15.469Z,48.88
2023-02-18T13:56:59.819Z,48.27
2023-02-18T13:59:49.290Z,48.80
2023-02-18T14:02:27.636Z,48.00
2023-02-18T14:05:09.216Z,48.16
2023-02-18T14:07:44.506Z,48.29
2023-02-18T14:10:13.770Z,48.53
2023-02-18T14:13:01.859Z,48.67
2023-02-18T14:15:28.459Z,47.87
2023-02-18T14:18:13.541Z,48.06
2023-02-18T14:20:40.091Z,48.32
2023-02-18T14:23:18.936Z,48.21
2023-02-18T14:26:09.212Z,48.40
2023-02-18T14:28:38.745Z,48.58
2023-02-18T14:31:42.575Z,48.16
2023-02-18T14:34:29.237Z,48.51
2023-02-18T14:37:14.390Z,47.95
2023-02-18T14:40:22.903Z,47.79
2023-02-18T14:43:07.396Z,47.51
2023-02-18T14:45:55.582Z,48.08
2023-02-18T14:48:42.572Z,48.11
2023-02-18T14:51:10.439Z,47.95
2023-02-18T14:53:45.685Z,47.80
2023-02-18T14:56:16.109Z,47.96
2023-02-18T14:58:47.331Z,47.81
2023-02-18T15:01:29.227Z,47.76
2023-02-18T15:03:56.746Z,48.08
2023-02-18T15:06:31.877Z,48.19
2023-02-18T15:09:00.284Z,48.63
2023-02-18T15:11:41.441Z,49.13
2023-02-18T15:14:21.721Z,49.40
2023-02-18T15:16:49.572Z,49.61
2023-02-18T15:19:19.004Z,49.95
2023-02-18T15:21:55.311Z,49.78
2023-02-18T15:24:26.608Z,49.64
2023-02-18T15:26:56.881Z,49.83
2023-02-18T15:29:26.479Z,50.06
2023-02-18T15:31:57.642Z,49.97
2023-02-18T15:34:29.646Z,49.75
2023-02-18T15:37:00.643Z,49.55
2023-02-18T15:39:28.509Z,49.88
2023-02-18T15:41:57.790Z,50.19
2023-02-18T15:44:27.587Z,50.18
2023-02-18T15:46:54.709Z,50.43
2023-02-18T15:49:24.506Z,50.17
2023-02-18T15:51:57.360Z,48.28
2023-02-18T15:54:24.356Z,48.18
2023-02-18T15:56:55.042Z,47.56
2023-02-18T15:59:27.753Z,47.80
2023-02-18T16:01:57.334Z,47.73
2023-02-18T16:04:30.132Z,47.92
2023-02-18T16:06:56.771Z,47.45
2023-02-18T16:09:30.189Z,48.00
2023-02-18T16:11:59.941Z,47.84
2023-02-18T16:14:28.682Z,48.13
2023-02-18T16:17:12.502Z,48.79
2023-02-18T16:20:05.162Z,48.64
2023-02-18T16:22:32.044Z,49.03
2023-02-18T16:25:13.661Z,48.95
2023-02-18T16:28:12.612Z,49.42
2023-02-18T16:30:41.491Z,49.57
2023-02-18T16:33:08.748Z,49.98
2023-02-18T16:35:48.980Z,50.17
2023-02-18T16:38:19.026Z,50.47
2023-02-18T16:40:45.647Z,50.63
2023-02-18T16:43:19.735Z,50.56
2023-02-18T16:45:56.537Z,51.20
2023-02-18T16:48:35.743Z,52.51
2023-02-18T16:51:06.461Z,51.44
2023-02-18T16:53:33.556Z,51.76
2023-02-18T16:56:01.646Z,51.70
2023-02-18T16:58:28.887Z,51.83
2023-02-18T17:00:55.783Z,51.77
2023-02-18T17:03:22.458Z,51.72
2023-02-18T17:05:49.092Z,51.66
2023-02-18T17:08:22.941Z,51.45
2023-02-18T17:10:53.100Z,51.66
2023-02-18T17:13:23.206Z,51.91
2023-02-18T17:15:53.282Z,51.88
2023-02-18T17:18:20.722Z,51.65
2023-02-18T17:20:49.854Z,52.05
2023-02-18T17:23:21.112Z,51.74
2023-02-18T17:25:48.936Z,51.67
2023-02-18T17:28:22.621Z,52.09
2023-02-18T17:30:56.528Z,51.77
2023-02-18T17:33:25.172Z,52.04
2023-02-18T17:35:52.113Z,52.21
2023-02-18T17:38:19.925Z,51.70
2023-02-18T17:40:48.894Z,51.33
2023-02-18T17:43:18.055Z,51.10
2023-02-18T17:45:53.745Z,51.16
2023-02-18T17:48:20.895Z,51.46
2023-02-18T17:50:47.495Z,51.20
2023-02-18T17:53:15.277Z,51.15
2023-02-18T17:55:42.938Z,51.12
2023-02-18T17:58:10.160Z,51.00
2023-02-18T18:00:43.389Z,51.20
2023-02-18T18:03:14.078Z,51.37
2023-02-18T18:05:43.080Z,51.44
2023-02-18T18:08:10.014Z,51.43
2023-02-18T18:10:45.004Z,51.55
2023-02-18T18:13:24.537Z,51.12
2023-02-18T18:15:51.996Z,51.02
2023-02-18T18:18:18.942Z,51.56
2023-02-18T18:20:48.460Z,51.41
2023-02-18T18:23:17.048Z,51.44
2023-02-18T18:25:46.582Z,51.14
2023-02-18T18:28:13.603Z,51.64
2023-02-18T18:30:43.203Z,51.67
2023-02-18T18:33:20.485Z,51.83
2023-02-18T18:35:49.940Z,51.90
2023-02-18T18:38:20.099Z,51.83
2023-02-18T18:40:47.798Z,52.23
2023-02-18T18:43:19.271Z,52.28
2023-02-18T18:45:46.587Z,52.63
2023-02-18T18:48:13.505Z,53.08
2023-02-18T18:50:42.080Z,53.18
2023-02-18T18:53:21.563Z,52.76
2023-02-18T18:55:49.665Z,53.07
2023-02-18T18:58:20.788Z,53.03
2023-02-18T19:00:53.023Z,53.13
2023-02-18T19:03:21.478Z,53.26
2023-02-18T19:05:49.828Z,53.59
2023-02-18T19:08:17.946Z,53.46
2023-02-18T19:10:48.615Z,53.10
2023-02-18T19:13:18.844Z,53.36
2023-02-18T19:15:46.341Z,53.39
2023-02-18T19:18:16.415Z,53.64
2023-02-18T19:20:44.200Z,53.74
2023-02-18T19:23:11.288Z,54.05
2023-02-18T19:25:39.083Z,54.08
2023-02-18T19:28:06.467Z,53.99
2023-02-18T19:30:35.807Z,53.86
2023-02-18T19:33:05.950Z,54.39
2023-02-18T19:35:33.479Z,54.26
2023-02-18T19:38:00.639Z,54.21
2023-02-18T19:40:30.304Z,54.08
2023-02-18T19:42:57.093Z,53.90
2023-02-18T19:45:24.550Z,54.09
2023-02-18T19:47:55.848Z,54.22
2023-02-18T19:50:23.738Z,54.51
2023-02-18T19:52:55.020Z,54.71
2023-02-18T19:55:23.190Z,55.07
2023-02-18T19:57:51.244Z,54.52
2023-02-18T20:00:20.209Z,55.21
2023-02-18T20:02:46.912Z,55.48
2023-02-18T20:05:14.441Z,55.14
2023-02-18T20:07:41.978Z,55.64
2023-02-18T20:10:14.339Z,55.39
2023-02-18T20:12:40.927Z,55.26
2023-02-18T20:15:08.410Z,55.45
2023-02-18T20:17:35.052Z,55.25
2023-02-18T20:20:01.934Z,55.21
2023-02-18T20:22:28.663Z,55.55
2023-02-18T20:24:55.256Z,55.75
2023-02-18T20:27:21.870Z,55.87
2023-02-18T20:29:48.423Z,56.08
2023-02-18T20:32:17.693Z,56.23
2023-02-18T20:34:45.460Z,56.09
2023-02-18T20:37:12.198Z,56.47
2023-02-18T20:39:38.869Z,56.90
2023-02-18T20:42:15.780Z,56.93
2023-02-18T20:44:43.250Z,56.59
2023-02-18T20:47:09.891Z,56.89
2023-02-18T20:49:37.066Z,56.95
2023-02-18T20:52:04.076Z,57.43
2023-02-18T20:54:31.059Z,57.62
2023-02-18T20:56:58.013Z,57.59
2023-02-18T20:59:26.363Z,57.90
2023-02-18T21:01:53.086Z,58.32
2023-02-18T21:04:20.452Z,57.71
2023-02-18T21:06:47.668Z,58.12
2023-02-18T21:09:15.692Z,58.30
2023-02-18T21:11:43.996Z,58.54
2023-02-18T21:14:11.364Z,58.62
2023-02-18T21:16:41.166Z,58.28
2023-02-18T21:19:11.110Z,58.60
2023-02-18T21:21:37.710Z,58.28
2023-02-18T21:24:04.524Z,58.72
2023-02-18T21:26:31.179Z,58.96
2023-02-18T21:29:01.243Z,59.12
2023-02-18T21:31:31.594Z,59.17
2023-02-18T21:33:59.057Z,59.62
2023-02-18T21:36:26.159Z,59.58
2023-02-18T21:38:57.592Z,60.04
2023-02-18T21:41:25.583Z,59.91
2023-02-18T21:43:52.822Z,60.36
2023-02-18T21:46:23.928Z,60.39
2023-02-18T21:49:03.192Z,60.62
2023-02-18T21:51:50.401Z,60.82
2023-02-18T21:54:18.819Z,61.26
2023-02-18T21:56:45.614Z,61.32
2023-02-18T21:59:12.559Z,60.93
2023-02-18T22:01:39.535Z,61.36
2023-02-18T22:04:06.154Z,61.76
2023-02-18T22:06:33.130Z,61.41
2023-02-18T22:09:01.734Z,61.24
2023-02-18T22:11:29.307Z,61.63
2023-02-18T22:13:56.137Z,61.62
2023-02-18T22:16:30.940Z,61.78
2023-02-18T22:19:05.669Z,62.27
2023-02-18T22:21:35.577Z,62.37
2023-02-18T22:24:11.940Z,62.45
2023-02-18T22:26:47.662Z,62.28
2023-02-18T22:29:22.256Z,62.79
2023-02-18T22:31:55.214Z,62.49
2023-02-18T22:34:32.424Z,62.63
2023-02-18T22:37:09.133Z,62.37
2023-02-18T22:39:35.741Z,62.77
2023-02-18T22:42:16.922Z,62.74
2023-02-18T22:44:43.479Z,62.91
2023-02-18T22:47:10.174Z,63.14
2023-02-18T22:49:42.879Z,63.17
2023-02-18T22:52:09.624Z,63.78
2023-02-18T22:54:41.238Z,64.01
2023-02-18T22:57:12.875Z,64.41
2023-02-18T22:59:39.477Z,64.62
2023-02-18T23:02:09.049Z,64.64
2023-02-18T23:04:46.523Z,64.89
2023-02-18T23:07:16.163Z,64.80
2023-02-18T23:09:42.752Z,64.94
2023-02-18T23:12:12.490Z,65.57
2023-02-18T23:14:39.062Z,65.20
2023-02-18T23:17:18.128Z,65.30
2023-02-18T23:19:53.988Z,65.52
2023-02-18T23:22:30.472Z,65.50
2023-02-18T23:24:59.403Z,66.07
2023-02-18T23:27:27.129Z,65.96
2023-02-18T23:29:56.641Z,66.15
2023-02-18T23:32:24.821Z,66.34
2023-02-18T23:35:06.421Z,66.34
2023-02-18T23:37:56.309Z,66.36
2023-02-18T23:40:24.057Z,66.56
2023-02-18T23:43:04.941Z,66.60
2023-02-18T23:45:31.566Z,66.56
2023-02-18T23:47:58.248Z,66.60
2023-02-18T23:50:24.864Z,66.81
2023-02-18T23:52:51.537Z,66.46
2023-02-18T23:55:19.600Z,66.67
2023-02-18T23:57:46.486Z,66.87
